Time;durP1;ratioP1;P1;durP2;ratioP2;P2;SDS_P1;SDS_P2;PMS_P1;PMS_P2;Temp;Humidity;BMP_temperature;BMP_pressure;BME280_temperature;BME280_humidity;BME280_pressure;Samples;Min_cycle;Max_cycle;Signal;HPM_P1;HPM_P2
2021/08/25 00:01:13;;;;;;;7.57;4.22;;;28.60;99.90;;;;;;4193290;28;20352;-65
2021/08/25 00:03:18;;;;;;;6.15;4.60;;;28.70;99.90;;;;;;4198253;28;20056;-65
2021/08/25 00:05:23;;;;;;;7.40;4.40;;;28.70;99.90;;;;;;4182731;28;20037;-64
2021/08/25 00:07:27;;;;;;;9.38;4.57;;;28.80;99.90;;;;;;4200484;28;20071;-65
2021/08/25 00:09:32;;;;;;;8.02;4.20;;;28.80;99.90;;;;;;4201599;28;20051;-64
2021/08/25 00:11:39;;;;;;;6.93;4.30;;;28.80;99.90;;;;;;4199065;28;20044;-65
2021/08/25 00:13:43;;;;;;;6.03;4.38;;;28.90;99.90;;;;;;4202115;28;20406;-65
2021/08/25 00:15:48;;;;;;;6.28;4.20;;;28.90;99.90;;;;;;4207723;28;20047;-64
2021/08/25 00:17:53;;;;;;;6.80;4.30;;;28.90;99.90;;;;;;4208907;28;20573;-64
2021/08/25 00:19:57;;;;;;;6.22;4.30;;;28.90;99.90;;;;;;4194491;28;20074;-64
2021/08/25 00:22:01;;;;;;;5.25;4.00;;;28.90;99.90;;;;;;4193438;28;20053;-64
2021/08/25 00:24:06;;;;;;;6.45;3.95;;;28.90;99.90;;;;;;4193445;28;20044;-63
2021/08/25 00:26:10;;;;;;;6.95;3.45;;;28.90;99.90;;;;;;4177622;28;20407;-64
2021/08/25 00:28:15;;;;;;;8.15;3.65;;;29.00;99.90;;;;;;4177293;28;20056;-64
2021/08/25 00:30:19;;;;;;;8.13;4.30;;;29.00;99.90;;;;;;4206101;28;20089;-63
2021/08/25 00:32:24;;;;;;;6.80;4.65;;;29.00;99.90;;;;;;4192549;28;20052;-64
2021/08/25 00:34:28;;;;;;;8.75;4.47;;;29.00;99.90;;;;;;4193688;28;20052;-63
2021/08/25 00:36:33;;;;;;;8.90;5.40;;;29.10;99.90;;;;;;4198511;28;20518;-64
2021/08/25 00:38:37;;;;;;;8.82;5.53;;;29.20;99.90;;;;;;4198358;28;20040;-63
2021/08/25 00:40:43;;;;;;;7.55;5.50;;;29.20;99.90;;;;;;4204691;28;20060;-64
2021/08/25 00:42:48;;;;;;;6.97;5.03;;;29.30;99.90;;;;;;4199201;28;20047;-64
2021/08/25 00:44:53;;;;;;;6.20;4.75;;;29.20;99.90;;;;;;4194912;28;20044;-65
2021/08/25 00:46:58;;;;;;;7.13;4.78;;;29.20;99.90;;;;;;4195594;28;20056;-64
2021/08/25 00:49:02;;;;;;;7.78;4.88;;;29.20;99.90;;;;;;4195394;28;20437;-64
2021/08/25 00:51:11;;;;;;;7.70;4.18;;;29.20;99.90;;;;;;4184718;28;20123;-61
2021/08/25 00:53:16;;;;;;;8.82;4.05;;;29.30;99.90;;;;;;4199635;28;20129;-64
2021/08/25 00:55:22;;;;;;;7.28;4.07;;;29.30;99.90;;;;;;4195687;28;20049;-63
2021/08/25 00:57:27;;;;;;;6.80;4.22;;;29.30;99.90;;;;;;4187105;28;20052;-63
2021/08/25 00:59:32;;;;;;;6.18;4.60;;;29.40;99.90;;;;;;4195959;28;20123;-64
2021/08/25 01:01:48;;;;;;;8.52;3.88;;;29.40;99.90;;;;;;4198739;28;20040;-65
2021/08/25 01:03:55;;;;;;;7.15;4.50;;;29.50;99.90;;;;;;4211357;28;20048;-64
2021/08/25 01:06:00;;;;;;;5.80;3.88;;;29.50;99.90;;;;;;4186188;28;20045;-64
2021/08/25 01:08:05;;;;;;;6.05;4.43;;;29.60;99.90;;;;;;4181067;28;20098;-64
2021/08/25 01:10:22;;;;;;;5.55;4.25;;;29.60;99.90;;;;;;4180597;28;20045;-64
2021/08/25 01:12:27;;;;;;;7.40;4.60;;;29.60;99.90;;;;;;4196856;28;20057;-64
2021/08/25 01:14:32;;;;;;;6.80;4.45;;;29.70;99.90;;;;;;4201380;28;20155;-64
2021/08/25 01:16:39;;;;;;;7.47;4.35;;;29.80;99.90;;;;;;4197246;28;20094;-65
2021/08/25 01:18:45;;;;;;;5.30;4.35;;;29.90;99.90;;;;;;4179005;28;20068;-65
2021/08/25 01:20:49;;;;;;;6.43;4.10;;;29.90;99.90;;;;;;4182576;28;21221;-64
2021/08/25 01:22:55;;;;;;;5.82;4.18;;;30.00;99.90;;;;;;4167438;28;20095;-65
2021/08/25 01:25:00;;;;;;;6.65;4.43;;;30.00;99.90;;;;;;4200074;28;20462;-65
2021/08/25 01:27:05;;;;;;;5.15;4.05;;;30.00;99.90;;;;;;4183929;28;20146;-65
2021/08/25 01:29:19;;;;;;;8.70;4.95;;;30.00;99.90;;;;;;4183945;28;20094;-63
2021/08/25 01:31:24;;;;;;;5.75;4.50;;;30.10;99.90;;;;;;4205344;28;20044;-64
2021/08/25 01:33:29;;;;;;;5.30;4.25;;;30.10;99.90;;;;;;4187821;28;20037;-64
2021/08/25 01:35:38;;;;;;;6.03;4.10;;;30.20;99.90;;;;;;4206813;28;20044;-63
2021/08/25 01:37:42;;;;;;;8.27;4.22;;;30.20;99.90;;;;;;4208749;28;20044;-63
2021/08/25 01:39:48;;;;;;;5.90;4.25;;;30.20;99.90;;;;;;4209547;28;20058;-65
2021/08/25 01:41:52;;;;;;;8.07;4.20;;;30.30;99.90;;;;;;4205304;28;20064;-65
2021/08/25 01:44:00;;;;;;;5.55;4.13;;;30.30;99.90;;;;;;4209020;28;20525;-64
2021/08/25 01:46:04;;;;;;;10.18;4.38;;;30.30;99.90;;;;;;4200992;28;20044;-65
2021/08/25 01:48:12;;;;;;;8.15;4.43;;;30.30;99.90;;;;;;4199256;28;20068;-63
2021/08/25 01:50:23;;;;;;;8.23;3.80;;;30.30;99.90;;;;;;4166371;28;20471;-67
2021/08/25 01:52:27;;;;;;;5.78;4.40;;;30.30;99.90;;;;;;4208506;28;20044;-66
2021/08/25 01:54:32;;;;;;;7.70;4.45;;;30.20;99.90;;;;;;4217527;28;20054;-66
2021/08/25 01:56:45;;;;;;;;;;;30.30;99.90;;;;;;4215349;28;20056;-65
2021/08/25 01:58:51;;;;;;;5.68;4.43;;;30.30;99.90;;;;;;4200947;28;19924;-62
2021/08/25 02:00:56;;;;;;;6.53;4.03;;;30.40;99.90;;;;;;4206249;28;20055;-65
2021/08/25 02:03:01;;;;;;;6.03;4.72;;;30.40;99.90;;;;;;4215172;28;20474;-66
2021/08/25 02:05:07;;;;;;;7.10;4.40;;;30.50;99.90;;;;;;4196678;28;20037;-65
2021/08/25 02:07:11;;;;;;;5.15;4.00;;;30.60;99.90;;;;;;4200548;28;20071;-65
2021/08/25 02:09:16;;;;;;;5.60;4.10;;;30.60;99.90;;;;;;4213345;28;20078;-66
2021/08/25 02:11:21;;;;;;;5.53;4.30;;;30.60;99.90;;;;;;4198649;28;20075;-66
2021/08/25 02:13:28;;;;;;;7.32;4.50;;;30.70;99.90;;;;;;4183980;28;20047;-66
2021/08/25 02:15:33;;;;;;;7.07;3.88;;;30.80;99.90;;;;;;4200182;28;20063;-67
2021/08/25 02:17:37;;;;;;;6.72;4.05;;;30.90;99.90;;;;;;4200075;28;20110;-65
2021/08/25 02:19:42;;;;;;;6.95;4.75;;;31.00;99.90;;;;;;4187660;28;20044;-65
2021/08/25 02:21:46;;;;;;;8.00;4.43;;;31.10;99.90;;;;;;4186860;28;20065;-66
2021/08/25 02:23:51;;;;;;;6.65;3.58;;;31.00;99.90;;;;;;4201142;28;20388;-65
2021/08/25 02:25:56;;;;;;;5.45;3.75;;;31.10;99.90;;;;;;4182550;28;20087;-66
2021/08/25 02:28:00;;;;;;;6.35;3.78;;;31.10;99.90;;;;;;4194601;28;20040;-65
2021/08/25 02:30:05;;;;;;;6.85;3.70;;;31.00;99.90;;;;;;4197553;28;20512;-65
2021/08/25 02:32:10;;;;;;;6.13;3.90;;;31.10;99.90;;;;;;4216461;28;20090;-67
2021/08/25 02:34:15;;;;;;;5.43;4.10;;;31.00;99.90;;;;;;4214889;28;20134;-65
2021/08/25 02:36:20;;;;;;;5.78;4.10;;;31.10;99.90;;;;;;4185659;28;20045;-65
2021/08/25 02:38:25;;;;;;;4.65;3.53;;;31.20;99.90;;;;;;4199813;28;20086;-66
2021/08/25 02:40:30;;;;;;;4.78;4.05;;;31.20;99.90;;;;;;4165370;28;20093;-66
2021/08/25 02:42:34;;;;;;;7.95;4.00;;;31.20;99.90;;;;;;4198090;28;20107;-62
2021/08/25 02:44:42;;;;;;;6.88;4.32;;;31.10;99.90;;;;;;4199836;28;20125;-65
2021/08/25 02:46:48;;;;;;;8.65;3.72;;;31.20;99.90;;;;;;4210947;28;20032;-65
2021/08/25 02:48:53;;;;;;;8.25;3.78;;;31.20;99.90;;;;;;4211479;28;20036;-66
2021/08/25 02:50:58;;;;;;;7.03;3.90;;;31.30;99.90;;;;;;4186691;28;20043;-66
2021/08/25 02:53:03;;;;;;;5.45;3.85;;;31.40;99.90;;;;;;4187494;28;20135;-64
2021/08/25 02:55:08;;;;;;;5.05;3.72;;;31.40;99.90;;;;;;4171115;28;20048;-63
2021/08/25 02:57:13;;;;;;;6.47;3.78;;;31.40;99.90;;;;;;4204741;28;20059;-63
2021/08/25 02:59:18;;;;;;;10.90;4.05;;;31.40;99.90;;;;;;4205430;28;20522;-65
2021/08/25 03:01:22;;;;;;;5.10;3.80;;;31.40;99.90;;;;;;4205751;28;20502;-63
2021/08/25 03:03:27;;;;;;;5.90;3.50;;;31.50;99.90;;;;;;4206314;28;20048;-64
2021/08/25 03:05:32;;;;;;;5.15;3.60;;;31.50;99.90;;;;;;4203211;28;20048;-63
2021/08/25 03:07:36;;;;;;;4.88;3.70;;;31.40;99.90;;;;;;4201019;28;20086;-65
2021/08/25 03:09:41;;;;;;;9.05;3.50;;;31.70;99.90;;;;;;4202283;28;20078;-64
2021/08/25 03:11:46;;;;;;;6.43;3.78;;;31.80;99.90;;;;;;4203158;28;20043;-64
2021/08/25 03:13:50;;;;;;;4.95;2.85;;;31.80;99.90;;;;;;4184475;28;20049;-67
2021/08/25 03:15:55;;;;;;;5.57;3.03;;;31.80;99.90;;;;;;4203564;28;20050;-67
2021/08/25 03:18:00;;;;;;;5.65;3.30;;;31.80;99.90;;;;;;4186979;28;20048;-66
2021/08/25 03:20:06;;;;;;;5.70;3.15;;;31.90;99.90;;;;;;4203683;28;20135;-66
2021/08/25 03:22:10;;;;;;;4.53;3.13;;;32.00;99.90;;;;;;4200726;28;20290;-66
2021/08/25 03:24:15;;;;;;;4.97;2.83;;;32.00;99.90;;;;;;4187315;28;20047;-66
2021/08/25 03:26:20;;;;;;;6.63;3.03;;;32.20;99.60;;;;;;4201832;28;20147;-66
2021/08/25 03:28:29;;;;;;;6.65;3.30;;;32.30;99.20;;;;;;4203637;28;20557;-65
2021/08/25 03:30:34;;;;;;;4.18;3.00;;;32.30;99.00;;;;;;4204450;28;20047;-65
2021/08/25 03:32:38;;;;;;;6.35;2.92;;;32.40;98.30;;;;;;4212571;28;20040;-65
2021/08/25 03:34:43;;;;;;;6.43;2.55;;;32.40;98.10;;;;;;4199915;28;20794;-66
2021/08/25 03:36:47;;;;;;;5.80;2.40;;;32.40;97.90;;;;;;4210201;28;20052;-65
2021/08/25 03:38:52;;;;;;;4.30;3.00;;;32.40;98.10;;;;;;4206410;28;20131;-67
2021/08/25 03:40:56;;;;;;;4.35;2.30;;;32.50;97.90;;;;;;4201360;28;20072;-66
2021/08/25 03:43:01;;;;;;;5.18;2.50;;;32.60;97.60;;;;;;4183958;28;20077;-67
2021/08/25 03:45:06;;;;;;;3.38;2.17;;;32.60;97.40;;;;;;4202707;28;20517;-67
2021/08/25 03:47:11;;;;;;;4.40;2.42;;;32.50;97.00;;;;;;4199643;28;20044;-66
2021/08/25 03:49:16;;;;;;;7.95;2.80;;;32.60;97.00;;;;;;4200504;28;20049;-66
2021/08/25 03:51:21;;;;;;;3.75;2.50;;;32.60;97.60;;;;;;4203025;28;20408;-65
2021/08/25 03:53:25;;;;;;;4.95;2.25;;;32.60;97.70;;;;;;4204954;28;20435;-66
2021/08/25 03:55:30;;;;;;;4.90;2.13;;;32.50;97.90;;;;;;4196256;28;20048;-65
2021/08/25 03:57:34;;;;;;;5.07;2.47;;;32.50;97.70;;;;;;4153348;28;20397;-67
2021/08/25 03:59:39;;;;;;;3.45;2.20;;;32.50;97.50;;;;;;4185929;28;20114;-66
2021/08/25 04:01:44;;;;;;;3.03;2.22;;;32.60;97.40;;;;;;4204204;28;20049;-67
2021/08/25 04:03:49;;;;;;;2.47;1.95;;;32.60;97.00;;;;;;4200314;28;20453;-66
2021/08/25 04:05:54;;;;;;;4.13;2.15;;;32.70;96.60;;;;;;4201317;28;20120;-66
2021/08/25 04:07:58;;;;;;;2.55;2.00;;;32.70;96.50;;;;;;4212425;28;20402;-67
2021/08/25 04:10:03;;;;;;;2.88;2.10;;;32.80;96.30;;;;;;4203983;28;20155;-67
2021/08/25 04:12:08;;;;;;;2.35;1.85;;;32.80;96.00;;;;;;4197100;28;20044;-67
2021/08/25 04:14:13;;;;;;;3.17;2.10;;;32.90;96.00;;;;;;4178542;28;20049;-66
2021/08/25 04:16:19;;;;;;;4.55;1.95;;;33.00;96.60;;;;;;4196363;28;20048;-68
2021/08/25 04:18:25;;;;;;;3.00;2.30;;;33.10;96.20;;;;;;4185262;28;20062;-67
2021/08/25 04:20:29;;;;;;;2.65;2.00;;;33.10;95.80;;;;;;4208696;28;20052;-67
2021/08/25 04:22:34;;;;;;;2.58;2.15;;;33.10;95.50;;;;;;4197874;28;20304;-66
2021/08/25 04:24:38;;;;;;;3.85;1.70;;;33.10;95.30;;;;;;4197337;28;20507;-67
2021/08/25 04:26:43;;;;;;;5.75;2.08;;;33.10;95.30;;;;;;4182385;28;20053;-68
2021/08/25 04:28:48;;;;;;;3.92;2.00;;;33.10;95.20;;;;;;4198327;28;20041;-67
2021/08/25 04:30:52;;;;;;;3.45;2.08;;;33.10;94.70;;;;;;4197812;28;20045;-66
2021/08/25 04:32:57;;;;;;;3.20;2.00;;;33.10;94.80;;;;;;4199427;28;20045;-65
2021/08/25 04:35:02;;;;;;;3.58;1.80;;;33.20;94.50;;;;;;4202662;28;20064;-67
2021/08/25 04:37:06;;;;;;;3.42;1.70;;;33.20;94.30;;;;;;4198725;28;20517;-66
2021/08/25 04:39:11;;;;;;;3.47;2.08;;;33.30;94.10;;;;;;4198798;28;20048;-67
2021/08/25 04:41:15;;;;;;;3.72;1.70;;;33.30;94.10;;;;;;4188715;28;20100;-65
2021/08/25 04:43:20;;;;;;;4.00;1.77;;;33.40;94.00;;;;;;4209621;28;20040;-66
2021/08/25 04:45:25;;;;;;;4.13;2.20;;;33.30;93.80;;;;;;4208246;28;20048;-67
2021/08/25 04:47:29;;;;;;;2.88;2.00;;;33.30;93.40;;;;;;4207231;28;20089;-67
2021/08/25 04:49:34;;;;;;;5.43;1.90;;;33.30;93.70;;;;;;4208677;28;20108;-67
2021/08/25 04:51:38;;;;;;;6.28;2.28;;;33.30;94.30;;;;;;4207634;28;20040;-66
2021/08/25 04:53:43;;;;;;;5.25;1.98;;;33.40;94.20;;;;;;4205884;28;20093;-66
2021/08/25 04:55:48;;;;;;;5.55;2.15;;;33.50;94.40;;;;;;4217091;28;20105;-67
2021/08/25 04:57:57;;;;;;;5.50;2.00;;;33.50;94.50;;;;;;4210729;28;20044;-68
2021/08/25 05:00:05;;;;;;;4.00;2.30;;;33.50;94.30;;;;;;4154926;28;20153;-68
2021/08/25 05:02:13;;;;;;;2.63;1.95;;;33.60;93.90;;;;;;4203748;28;20055;-68
2021/08/25 05:04:17;;;;;;;5.57;2.10;;;33.60;93.70;;;;;;4207031;28;20089;-68
2021/08/25 05:06:32;;;;;;;3.38;2.10;;;33.70;93.90;;;;;;4149561;28;20409;-67
2021/08/25 05:08:36;;;;;;;5.20;1.83;;;33.80;94.10;;;;;;4198488;28;20051;-66
2021/08/25 05:10:45;;;;;;;2.03;1.70;;;33.80;93.70;;;;;;4201612;28;20059;-67
2021/08/25 05:12:50;;;;;;;3.15;1.88;;;33.80;93.80;;;;;;4193198;28;20052;-67
2021/08/25 05:14:55;;;;;;;2.63;1.70;;;33.90;93.00;;;;;;4200588;28;20135;-67
2021/08/25 05:17:00;;;;;;;2.60;1.60;;;33.90;92.60;;;;;;4183202;28;20045;-69
2021/08/25 05:19:05;;;;;;;5.43;1.98;;;33.80;92.60;;;;;;4192894;28;20145;-68
2021/08/25 05:21:10;;;;;;;2.25;1.70;;;33.80;92.30;;;;;;4165425;28;20176;-68
2021/08/25 05:23:15;;;;;;;5.85;1.80;;;33.90;92.30;;;;;;4166491;28;20045;-68
2021/08/25 05:25:20;;;;;;;2.88;2.10;;;33.80;92.30;;;;;;4150122;28;20415;-67
2021/08/25 05:27:24;;;;;;;4.55;1.90;;;33.80;92.30;;;;;;4180789;28;20055;-68
2021/08/25 05:29:29;;;;;;;2.65;2.00;;;33.90;92.60;;;;;;4199428;28;20069;-67
2021/08/25 05:31:34;;;;;;;2.80;1.85;;;34.00;92.20;;;;;;4182897;28;20491;-69
2021/08/25 05:33:38;;;;;;;3.03;1.63;;;34.10;92.70;;;;;;4188558;28;20052;-67
2021/08/25 05:35:42;;;;;;;2.05;1.55;;;34.10;92.30;;;;;;4182540;28;20045;-67
2021/08/25 05:37:48;;;;;;;3.70;1.50;;;34.20;92.30;;;;;;4166125;28;20140;-68
2021/08/25 05:39:53;;;;;;;3.67;2.05;;;34.20;92.20;;;;;;4165854;28;20108;-67
2021/08/25 05:41:58;;;;;;;5.07;2.00;;;34.30;92.40;;;;;;4186221;28;20047;-67
2021/08/25 05:44:04;;;;;;;2.10;1.60;;;34.40;92.30;;;;;;4182326;28;20486;-67
2021/08/25 05:46:09;;;;;;;2.67;1.60;;;34.40;92.20;;;;;;4199167;28;20411;-68
2021/08/25 05:48:13;;;;;;;2.85;1.70;;;34.50;92.30;;;;;;4182514;28;20048;-67
2021/08/25 05:50:18;;;;;;;1.80;1.60;;;34.50;92.40;;;;;;4200260;28;20139;-68
2021/08/25 05:52:23;;;;;;;2.13;1.70;;;34.50;91.60;;;;;;4215126;28;20040;-67
2021/08/25 05:54:27;;;;;;;3.70;2.00;;;34.60;92.10;;;;;;4217380;28;20051;-66
2021/08/25 05:56:34;;;;;;;2.00;1.80;;;34.50;92.10;;;;;;4217187;28;20048;-66
2021/08/25 05:58:41;;;;;;;3.47;2.00;;;34.50;91.80;;;;;;4166143;28;20431;-68
2021/08/25 06:00:45;;;;;;;3.20;2.00;;;34.50;91.40;;;;;;4151244;28;20069;-68
2021/08/25 06:02:50;;;;;;;2.83;1.52;;;34.60;91.30;;;;;;4188086;28;20573;-68
2021/08/25 06:04:55;;;;;;;2.92;1.70;;;34.60;91.60;;;;;;4201117;28;20051;-66
2021/08/25 06:07:00;;;;;;;1.90;1.50;;;34.40;91.80;;;;;;4202503;28;20139;-66
2021/08/25 06:09:15;;;;;;;3.65;1.73;;;34.30;91.80;;;;;;4183232;28;20041;-70
2021/08/25 06:11:28;;;;;;;3.53;1.55;;;34.20;91.70;;;;;;4143971;28;20050;-67
2021/08/25 06:13:33;;;;;;;2.88;1.67;;;34.30;91.80;;;;;;4201270;28;20049;-67
2021/08/25 06:15:38;;;;;;;2.38;1.58;;;34.40;91.80;;;;;;4201445;28;20067;-68
2021/08/25 06:17:43;;;;;;;2.13;1.65;;;34.60;91.80;;;;;;4167733;28;20132;-67
2021/08/25 06:19:50;;;;;;;2.50;1.63;;;34.70;91.60;;;;;;4200921;28;20086;-67
2021/08/25 06:21:55;;;;;;;3.53;1.48;;;34.80;91.10;;;;;;4184751;28;20482;-71
2021/08/25 06:24:02;;;;;;;3.83;1.55;;;34.80;90.90;;;;;;4166292;28;20717;-68
2021/08/25 06:26:07;;;;;;;1.80;1.58;;;34.80;90.20;;;;;;4150521;28;20050;-69
2021/08/25 06:28:12;;;;;;;2.90;1.63;;;34.80;89.20;;;;;;4198562;28;20052;-69
2021/08/25 06:30:18;;;;;;;1.90;1.50;;;34.80;89.80;;;;;;4200716;28;20124;-69
2021/08/25 06:32:25;;;;;;;2.17;1.50;;;34.90;89.30;;;;;;4200940;28;20047;-70
2021/08/25 06:34:34;;;;;;;2.20;1.63;;;34.90;88.60;;;;;;4217221;28;20044;-68
2021/08/25 06:36:39;;;;;;;2.50;1.52;;;34.90;88.50;;;;;;4202512;28;20055;-69
2021/08/25 06:38:43;;;;;;;2.35;1.45;;;35.00;89.70;;;;;;4208419;28;20341;-67
2021/08/25 06:40:54;;;;;;;2.80;1.60;;;35.00;89.70;;;;;;4208761;28;20098;-71
2021/08/25 06:43:11;;;;;;;3.97;1.60;;;35.00;88.90;;;;;;4191447;28;20091;-69
2021/08/25 06:45:18;;;;;;;3.33;1.95;;;35.00;88.30;;;;;;4172584;28;20087;-69
2021/08/25 06:47:22;;;;;;;2.63;1.75;;;35.10;88.30;;;;;;4189478;28;20049;-68
2021/08/25 06:49:27;;;;;;;4.10;1.50;;;35.10;88.70;;;;;;4188260;28;20048;-69
2021/08/25 06:51:32;;;;;;;2.92;1.70;;;35.20;87.90;;;;;;4189092;28;20037;-70
2021/08/25 06:53:39;;;;;;;2.28;1.77;;;35.20;87.60;;;;;;4205449;28;20045;-70
2021/08/25 06:55:44;;;;;;;2.22;1.70;;;35.10;87.70;;;;;;4205971;28;20044;-69
2021/08/25 06:57:49;;;;;;;2.50;1.92;;;35.20;87.10;;;;;;4203768;28;20040;-69
2021/08/25 06:59:53;;;;;;;2.80;1.65;;;35.30;87.30;;;;;;4168681;28;20041;-70
2021/08/25 07:01:58;;;;;;;2.25;1.58;;;35.40;86.80;;;;;;4181620;28;20045;-69
2021/08/25 07:04:03;;;;;;;3.60;1.65;;;35.40;86.10;;;;;;4196676;28;20108;-71
2021/08/25 07:06:11;;;;;;;3.85;1.75;;;35.10;87.10;;;;;;4182124;28;20049;-68
2021/08/25 07:08:16;;;;;;;4.90;2.00;;;35.00;88.20;;;;;;4200395;28;20517;-68
2021/08/25 07:10:22;;;;;;;9.65;2.00;;;35.10;87.40;;;;;;4182623;28;20043;-67
2021/08/25 07:12:27;;;;;;;6.88;2.10;;;35.20;86.60;;;;;;4198431;28;20467;-69
2021/08/25 07:14:31;;;;;;;4.30;2.00;;;35.40;86.60;;;;;;4199838;28;20044;-69
2021/08/25 07:16:36;;;;;;;4.55;2.00;;;35.40;86.50;;;;;;4194138;28;20405;-69
2021/08/25 07:18:43;;;;;;;6.30;1.98;;;35.40;86.30;;;;;;4208350;28;20468;-70
2021/08/25 07:20:50;;;;;;;5.40;1.88;;;35.50;86.00;;;;;;4175633;28;20220;-68
2021/08/25 07:22:55;;;;;;;3.38;1.67;;;35.50;85.20;;;;;;4200227;28;20138;-69
2021/08/25 07:25:00;;;;;;;3.65;1.88;;;35.60;84.50;;;;;;4198748;28;20036;-68
2021/08/25 07:27:04;;;;;;;2.65;2.00;;;35.50;83.40;;;;;;4183951;28;20117;-68
2021/08/25 07:29:09;;;;;;;3.85;2.08;;;35.50;84.10;;;;;;4175401;28;20864;-68
2021/08/25 07:31:15;;;;;;;5.32;1.92;;;35.60;84.00;;;;;;4178285;28;20049;-68
2021/08/25 07:33:22;;;;;;;5.43;2.10;;;35.60;83.00;;;;;;4181523;28;20079;-69
2021/08/25 07:35:29;;;;;;;4.97;2.13;;;35.70;82.80;;;;;;4189802;28;20044;-70
2021/08/25 07:37:35;;;;;;;3.38;1.85;;;35.70;82.70;;;;;;4202076;28;20545;-68
2021/08/25 07:39:39;;;;;;;2.85;1.77;;;35.60;83.30;;;;;;4198241;28;20037;-69
2021/08/25 07:41:44;;;;;;;2.60;1.73;;;35.50;83.80;;;;;;4199326;28;20064;-68
2021/08/25 07:43:49;;;;;;;3.30;1.80;;;35.40;84.40;;;;;;4178809;28;20037;-70
2021/08/25 07:45:53;;;;;;;2.40;2.08;;;35.50;84.30;;;;;;4198829;28;20442;-69
2021/08/25 07:47:58;;;;;;;3.72;1.80;;;35.50;82.50;;;;;;4199908;28;20036;-68
2021/08/25 07:50:03;;;;;;;3.10;1.73;;;35.50;82.80;;;;;;4198231;28;20057;-69
2021/08/25 07:52:14;;;;;;;3.33;1.70;;;35.60;82.50;;;;;;4166520;28;20053;-69
2021/08/25 07:54:21;;;;;;;;;;;35.60;82.70;;;;;;4181547;28;20036;-70
2021/08/25 07:56:28;;;;;;;3.17;1.73;;;35.60;82.20;;;;;;4181575;28;19921;-70
2021/08/25 07:58:33;;;;;;;3.53;1.70;;;35.50;81.80;;;;;;4200560;28;20044;-69
2021/08/25 08:00:49;;;;;;;4.30;1.73;;;35.40;81.80;;;;;;4209718;28;20071;-71
2021/08/25 08:03:05;;;;;;;2.88;1.73;;;35.50;81.30;;;;;;4206287;28;20048;-68
2021/08/25 08:05:20;;;;;;;6.78;1.92;;;35.60;80.90;;;;;;4193289;28;20068;-68
2021/08/25 08:07:25;;;;;;;3.35;1.83;;;35.60;81.00;;;;;;4164790;28;20037;-70
2021/08/25 08:09:39;;;;;;;4.45;1.98;;;35.60;81.60;;;;;;4120102;28;20146;-69
2021/08/25 08:11:47;;;;;;;3.28;1.90;;;35.50;81.40;;;;;;4184251;28;20039;-68
2021/08/25 08:13:57;;;;;;;4.75;1.98;;;35.50;81.80;;;;;;4185377;28;20063;-68
2021/08/25 08:16:09;;;;;;;4.60;1.80;;;35.40;81.60;;;;;;4188982;28;20459;-69
2021/08/25 08:18:57;;;;;;;4.25;1.60;;;35.40;82.30;;;;;;4184641;28;20052;-68
2021/08/25 08:21:16;;;;;;;3.95;2.03;;;35.50;82.50;;;;;;4194289;28;20083;-69
2021/08/25 08:23:26;;;;;;;2.70;1.73;;;35.50;82.60;;;;;;4189940;28;20061;-69
2021/08/25 08:25:33;;;;;;;3.28;1.77;;;35.50;82.00;;;;;;4153929;28;20069;-69
2021/08/25 08:27:38;;;;;;;3.75;2.05;;;35.50;81.90;;;;;;4137015;28;20049;-69
2021/08/25 08:29:59;;;;;;;4.07;1.58;;;35.60;82.10;;;;;;4187652;28;20060;-68
2021/08/25 08:32:05;;;;;;;4.00;1.70;;;35.60;82.00;;;;;;4189271;28;20041;-69
2021/08/25 08:34:17;;;;;;;;;;;35.70;81.90;;;;;;4190254;28;20883;-70
2021/08/25 08:36:22;;;;;;;3.30;1.42;;;35.70;82.00;;;;;;4171432;28;19928;-70
2021/08/25 08:38:32;;;;;;;2.78;1.58;;;35.70;81.70;;;;;;4189706;28;20511;-70
2021/08/25 08:40:42;;;;;;;4.05;1.65;;;35.70;82.10;;;;;;4188294;28;20072;-70
2021/08/25 08:42:53;;;;;;;1.88;1.55;;;35.60;81.90;;;;;;4204223;28;20036;-67
2021/08/25 08:45:05;;;;;;;4.05;1.52;;;35.60;82.30;;;;;;4187355;28;20048;-68
2021/08/25 08:47:15;;;;;;;7.22;1.88;;;35.50;81.90;;;;;;4168562;28;20041;-69
2021/08/25 08:49:21;;;;;;;3.90;1.63;;;35.60;81.80;;;;;;4170531;28;20358;-68
2021/08/25 08:51:28;;;;;;;4.65;1.45;;;35.50;81.50;;;;;;4152060;28;20050;-67
2021/08/25 08:53:37;;;;;;;2.42;1.40;;;35.50;81.80;;;;;;4149469;28;20068;-69
2021/08/25 08:55:45;;;;;;;4.60;1.95;;;35.60;80.60;;;;;;4165031;28;20078;-69
2021/08/25 08:57:53;;;;;;;4.32;1.63;;;35.60;80.60;;;;;;4171340;28;20048;-67
2021/08/25 09:00:11;;;;;;;6.60;1.58;;;35.60;80.90;;;;;;4175706;28;20043;-68
2021/08/25 09:02:39;;;;;;;4.72;1.48;;;35.60;81.30;;;;;;4189760;28;20546;-66
2021/08/25 09:04:51;;;;;;;5.55;1.55;;;35.60;81.20;;;;;;4181066;28;20590;-67
2021/08/25 09:06:56;;;;;;;2.58;1.50;;;35.60;80.90;;;;;;4180797;28;20041;-68
2021/08/25 09:09:01;;;;;;;3.70;1.60;;;35.60;80.80;;;;;;4184440;28;20036;-68
2021/08/25 09:11:19;;;;;;;4.63;1.60;;;35.60;80.60;;;;;;4183093;28;20048;-69
2021/08/25 09:13:25;;;;;;;2.70;1.70;;;35.60;79.40;;;;;;4180962;28;20135;-68
2021/08/25 09:15:46;;;;;;;5.50;1.67;;;35.60;78.10;;;;;;4117164;28;20518;-69
2021/08/25 09:18:01;;;;;;;3.22;1.38;;;35.60;78.00;;;;;;4187722;28;20049;-69
2021/08/25 09:20:09;;;;;;;2.95;1.75;;;35.60;78.50;;;;;;4184973;28;20048;-70
2021/08/25 09:22:19;;;;;;;2.90;1.42;;;35.50;78.80;;;;;;4206223;28;20102;-68
2021/08/25 09:24:38;;;;;;;4.70;1.52;;;35.50;79.00;;;;;;4202543;28;20041;-69
2021/08/25 09:27:07;;;;;;;3.03;1.70;;;35.50;79.60;;;;;;4205026;28;20044;-69
2021/08/25 09:29:17;;;;;;;5.28;1.70;;;35.50;79.20;;;;;;4209501;28;20051;-68
2021/08/25 09:31:21;;;;;;;2.50;1.65;;;35.60;79.50;;;;;;4175936;28;20064;-69
2021/08/25 09:33:32;;;;;;;2.22;1.80;;;35.50;80.00;;;;;;4181596;28;20033;-69
2021/08/25 09:35:44;;;;;;;3.33;1.60;;;35.40;80.40;;;;;;4184358;28;20117;-68
2021/08/25 09:37:55;;;;;;;2.38;1.50;;;35.40;80.50;;;;;;4184849;28;20119;-67
2021/08/25 09:40:17;;;;;;;1.70;1.48;;;35.30;81.00;;;;;;4186195;28;20589;-69
2021/08/25 09:42:39;;;;;;;2.60;1.80;;;35.20;81.30;;;;;;4208662;28;20041;-72
2021/08/25 09:44:58;;;;;;;3.73;1.87;;;35.20;81.20;;;;;;4202015;28;20033;-68
2021/08/25 09:47:03;;;;;;;6.30;1.70;;;35.20;81.80;;;;;;4209054;28;20097;-68
2021/08/25 09:49:13;;;;;;;4.03;1.70;;;35.20;82.00;;;;;;4217736;28;20125;-68
2021/08/25 09:51:19;;;;;;;4.65;2.00;;;35.10;82.20;;;;;;4201640;28;20052;-68
2021/08/25 09:53:24;;;;;;;2.97;2.00;;;35.10;82.50;;;;;;4202619;28;20119;-68
2021/08/25 09:55:33;;;;;;;2.45;1.90;;;35.10;83.00;;;;;;4184736;28;20060;-69
2021/08/25 09:57:38;;;;;;;3.13;1.90;;;35.00;83.50;;;;;;4205786;28;20040;-68
2021/08/25 09:59:43;;;;;;;2.13;1.75;;;35.00;83.70;;;;;;4187787;28;20048;-69
2021/08/25 10:01:49;;;;;;;2.65;1.90;;;35.00;84.20;;;;;;4204199;28;20041;-69
2021/08/25 10:03:57;;;;;;;3.55;1.88;;;35.10;84.00;;;;;;4171041;28;20456;-69
2021/08/25 10:06:01;;;;;;;3.40;1.73;;;35.10;84.10;;;;;;4203563;28;20486;-69
2021/08/25 10:08:06;;;;;;;2.90;2.00;;;35.10;84.00;;;;;;4219212;28;20048;-68
2021/08/25 10:10:10;;;;;;;4.63;3.00;;;35.00;84.20;;;;;;4188833;28;20478;-69
2021/08/25 10:12:18;;;;;;;3.35;2.72;;;34.90;84.20;;;;;;4180101;28;20105;-71
2021/08/25 10:14:24;;;;;;;4.07;2.75;;;35.00;84.10;;;;;;4209491;28;20098;-68
2021/08/25 10:16:42;;;;;;;3.40;2.25;;;34.90;84.20;;;;;;4208423;28;20045;-67
2021/08/25 10:18:47;;;;;;;5.35;2.55;;;34.90;83.90;;;;;;4213037;28;20139;-69
2021/08/25 10:20:53;;;;;;;6.00;2.50;;;34.80;84.20;;;;;;4213475;28;20052;-68
2021/08/25 10:22:57;;;;;;;3.13;2.47;;;34.80;84.10;;;;;;4169633;28;20994;-67
2021/08/25 10:25:06;;;;;;;2.47;1.90;;;34.80;83.80;;;;;;4185702;28;20788;-69
2021/08/25 10:27:11;;;;;;;2.47;2.10;;;34.70;83.80;;;;;;4210035;28;20041;-70
2021/08/25 10:29:16;;;;;;;3.95;2.10;;;34.70;83.70;;;;;;4207110;28;20470;-69
2021/08/25 10:31:23;;;;;;;2.58;2.10;;;34.70;83.80;;;;;;4189753;28;20048;-68
2021/08/25 10:33:28;;;;;;;2.92;2.00;;;34.70;84.10;;;;;;4183907;28;20029;-70
2021/08/25 10:35:43;;;;;;;4.20;1.70;;;34.60;84.30;;;;;;4196377;28;20056;-73
2021/08/25 10:38:15;;;;;;;5.35;2.50;;;34.50;84.60;;;;;;4169852;28;20107;-71
2021/08/25 10:40:32;;;;;;;3.13;2.20;;;34.50;84.70;;;;;;4210877;28;20068;-69
2021/08/25 10:42:47;;;;;;;4.57;2.40;;;34.40;84.70;;;;;;4205400;28;20283;-70
2021/08/25 10:44:57;;;;;;;3.17;2.47;;;34.40;85.00;;;;;;4204528;28;20047;-70
2021/08/25 10:47:05;;;;;;;2.40;2.13;;;34.30;85.60;;;;;;4209169;28;20036;-69
2021/08/25 10:49:32;;;;;;;3.90;2.30;;;34.20;86.20;;;;;;4186967;28;20037;-69
2021/08/25 10:51:40;;;;;;;6.65;2.78;;;34.10;86.50;;;;;;4210028;28;20040;-70
2021/08/25 10:53:45;;;;;;;3.70;2.60;;;34.10;86.60;;;;;;4209533;28;20107;-69
2021/08/25 10:55:49;;;;;;;3.50;2.50;;;34.00;86.80;;;;;;4209649;28;20040;-70
2021/08/25 10:57:54;;;;;;;4.45;2.70;;;34.00;86.80;;;;;;4205027;28;20057;-68
2021/08/25 11:00:09;;;;;;;3.67;2.42;;;34.00;87.00;;;;;;4204808;28;20067;-67
2021/08/25 11:02:14;;;;;;;3.63;2.35;;;34.00;87.30;;;;;;4188171;28;20440;-69